Kezdőlap
METAR-TAF:

METAR-TAF

Repülőterek :

Albert Lea, Minnesota, Amerikai Egyesült Államok

földrajzi szélesség: 43-41N, földrajzi hosszúság: 093-22W, magasság: 383 m

Jelenlegi meteorológiai megfigyelések

A jelentés 26 perccel ezelõtt készült, 08:35 UTC
Szélcsend
Hőmérséklet 22°C
Páratartalom 100%
Légköri nyomás 1012 hPa
Látótávolság: 11.3 km
Derült ég

METAR: KAEL 100835Z AUTO 00000KT 7SM CLR 22/22 A2987 RMK AO2 LTG DSNT N AND NW

Idő: 04:01 (09:01 UTC)


TAF: hiányzik

Meteorológiai megfigyelések és előrejelzések több, mint 4000 repülőtéren (METAR és TAF jelentéseket).

A térképen piros és sárga pontok jelzik az elérhető meteorológiai állomásokat.

Mozgassa az egeret a pont fölött, hogy megjelenjen az állomás neve.

Azután kattintson az időjárási megfigyelések és előrejelzések megtekintéséhez.

A térkép megváltoztatása: kattintson a fekete keresztel jelölt zöld gombra ráközelítéshez, a vonallal jelölt zöld gombra távolításhoz, vagy a zöld nyilakra a szomszédos térképek eléréséhez.


METAR-TAF: